sensor_id;sensor_type;location;lat;lon;timestamp;P1;durP1;ratioP1;P2;durP2;ratioP2
16403;SDS011;8311;50.158;8.642;2022-10-24T00:02:33;6.53;;;2.97;;
16403;SDS011;8311;50.158;8.642;2022-10-24T00:05:26;9.45;;;3.28;;
16403;SDS011;8311;50.158;8.642;2022-10-24T00:08:19;4.22;;;2.78;;
16403;SDS011;8311;50.158;8.642;2022-10-24T00:11:13;7.88;;;2.72;;
16403;SDS011;8311;50.158;8.642;2022-10-24T00:14:08;6.40;;;3.03;;
16403;SDS011;8311;50.158;8.642;2022-10-24T00:17:03;4.80;;;2.63;;
16403;SDS011;8311;50.158;8.642;2022-10-24T00:19:57;5.43;;;2.65;;
16403;SDS011;8311;50.158;8.642;2022-10-24T00:22:51;5.47;;;2.97;;
16403;SDS011;8311;50.158;8.642;2022-10-24T00:25:44;5.00;;;2.45;;
16403;SDS011;8311;50.158;8.642;2022-10-24T00:28:38;6.65;;;2.90;;
16403;SDS011;8311;50.158;8.642;2022-10-24T00:31:31;6.22;;;2.63;;
16403;SDS011;8311;50.158;8.642;2022-10-24T00:34:26;4.47;;;2.88;;
16403;SDS011;8311;50.158;8.642;2022-10-24T00:37:19;4.53;;;2.45;;
16403;SDS011;8311;50.158;8.642;2022-10-24T00:40:13;4.78;;;2.70;;
16403;SDS011;8311;50.158;8.642;2022-10-24T00:43:11;4.10;;;2.60;;
16403;SDS011;8311;50.158;8.642;2022-10-24T00:46:06;7.78;;;2.55;;
16403;SDS011;8311;50.158;8.642;2022-10-24T00:48:59;4.13;;;2.35;;
16403;SDS011;8311;50.158;8.642;2022-10-24T00:51:54;4.80;;;2.65;;
16403;SDS011;8311;50.158;8.642;2022-10-24T00:54:51;7.43;;;2.53;;
16403;SDS011;8311;50.158;8.642;2022-10-24T00:57:47;4.50;;;2.30;;
16403;SDS011;8311;50.158;8.642;2022-10-24T01:00:44;4.30;;;2.55;;
16403;SDS011;8311;50.158;8.642;2022-10-24T01:03:37;4.50;;;2.35;;
16403;SDS011;8311;50.158;8.642;2022-10-24T01:06:33;4.50;;;2.45;;
16403;SDS011;8311;50.158;8.642;2022-10-24T01:09:39;4.75;;;2.53;;
16403;SDS011;8311;50.158;8.642;2022-10-24T01:12:45;6.93;;;2.38;;
16403;SDS011;8311;50.158;8.642;2022-10-24T01:15:48;6.10;;;2.30;;
16403;SDS011;8311;50.158;8.642;2022-10-24T01:18:47;4.28;;;2.00;;
16403;SDS011;8311;50.158;8.642;2022-10-24T01:21:46;4.93;;;2.42;;
16403;SDS011;8311;50.158;8.642;2022-10-24T01:24:49;4.75;;;2.40;;
16403;SDS011;8311;50.158;8.642;2022-10-24T01:27:56;6.15;;;2.25;;
16403;SDS011;8311;50.158;8.642;2022-10-24T01:30:58;2.92;;;1.80;;
16403;SDS011;8311;50.158;8.642;2022-10-24T01:33:57;7.07;;;2.17;;
16403;SDS011;8311;50.158;8.642;2022-10-24T01:36:57;6.65;;;2.03;;
16403;SDS011;8311;50.158;8.642;2022-10-24T01:39:55;4.30;;;2.00;;
16403;SDS011;8311;50.158;8.642;2022-10-24T01:42:55;3.33;;;2.00;;
16403;SDS011;8311;50.158;8.642;2022-10-24T01:45:52;6.15;;;1.95;;
16403;SDS011;8311;50.158;8.642;2022-10-24T01:48:52;5.32;;;2.10;;
16403;SDS011;8311;50.158;8.642;2022-10-24T01:51:50;3.47;;;2.03;;
16403;SDS011;8311;50.158;8.642;2022-10-24T01:54:45;3.70;;;2.20;;
16403;SDS011;8311;50.158;8.642;2022-10-24T01:57:40;3.05;;;1.85;;
16403;SDS011;8311;50.158;8.642;2022-10-24T02:00:33;3.80;;;2.20;;
16403;SDS011;8311;50.158;8.642;2022-10-24T02:03:30;4.55;;;2.10;;
16403;SDS011;8311;50.158;8.642;2022-10-24T02:06:27;4.00;;;2.25;;
16403;SDS011;8311;50.158;8.642;2022-10-24T02:09:23;3.63;;;2.03;;
16403;SDS011;8311;50.158;8.642;2022-10-24T02:12:17;4.82;;;1.85;;
16403;SDS011;8311;50.158;8.642;2022-10-24T02:15:13;3.05;;;1.75;;
16403;SDS011;8311;50.158;8.642;2022-10-24T02:18:11;3.95;;;2.10;;
16403;SDS011;8311;50.158;8.642;2022-10-24T02:21:07;3.35;;;2.15;;
16403;SDS011;8311;50.158;8.642;2022-10-24T02:24:11;4.30;;;1.90;;
16403;SDS011;8311;50.158;8.642;2022-10-24T02:27:11;4.60;;;1.88;;
16403;SDS011;8311;50.158;8.642;2022-10-24T02:30:08;6.38;;;2.03;;
16403;SDS011;8311;50.158;8.642;2022-10-24T02:33:03;4.50;;;2.47;;
16403;SDS011;8311;50.158;8.642;2022-10-24T02:35:57;4.38;;;2.17;;
16403;SDS011;8311;50.158;8.642;2022-10-24T02:38:52;4.70;;;1.85;;
16403;SDS011;8311;50.158;8.642;2022-10-24T02:41:47;8.90;;;2.17;;
16403;SDS011;8311;50.158;8.642;2022-10-24T02:44:42;5.15;;;1.83;;
16403;SDS011;8311;50.158;8.642;2022-10-24T02:47:38;3.67;;;2.00;;
16403;SDS011;8311;50.158;8.642;2022-10-24T02:50:35;3.22;;;2.10;;
16403;SDS011;8311;50.158;8.642;2022-10-24T02:53:30;5.97;;;2.03;;
16403;SDS011;8311;50.158;8.642;2022-10-24T02:56:29;3.03;;;1.98;;
16403;SDS011;8311;50.158;8.642;2022-10-24T02:59:22;3.53;;;2.00;;
16403;SDS011;8311;50.158;8.642;2022-10-24T03:02:15;6.88;;;2.20;;
16403;SDS011;8311;50.158;8.642;2022-10-24T03:05:08;4.60;;;2.20;;
16403;SDS011;8311;50.158;8.642;2022-10-24T03:08:01;4.00;;;1.70;;
16403;SDS011;8311;50.158;8.642;2022-10-24T03:10:54;4.38;;;2.03;;
16403;SDS011;8311;50.158;8.642;2022-10-24T03:13:49;7.72;;;2.20;;
16403;SDS011;8311;50.158;8.642;2022-10-24T03:16:42;10.85;;;2.20;;
16403;SDS011;8311;50.158;8.642;2022-10-24T03:19:35;4.70;;;1.98;;
16403;SDS011;8311;50.158;8.642;2022-10-24T03:22:28;10.45;;;2.25;;
16403;SDS011;8311;50.158;8.642;2022-10-24T03:25:21;5.15;;;2.67;;
16403;SDS011;8311;50.158;8.642;2022-10-24T03:28:14;3.60;;;2.00;;
16403;SDS011;8311;50.158;8.642;2022-10-24T03:31:09;2.95;;;1.70;;
16403;SDS011;8311;50.158;8.642;2022-10-24T03:34:02;4.57;;;2.33;;
16403;SDS011;8311;50.158;8.642;2022-10-24T03:36:55;8.05;;;2.05;;
16403;SDS011;8311;50.158;8.642;2022-10-24T03:39:50;5.70;;;1.88;;
16403;SDS011;8311;50.158;8.642;2022-10-24T03:42:43;4.68;;;2.13;;
16403;SDS011;8311;50.158;8.642;2022-10-24T03:45:37;6.70;;;2.30;;
16403;SDS011;8311;50.158;8.642;2022-10-24T03:48:33;4.75;;;2.00;;
16403;SDS011;8311;50.158;8.642;2022-10-24T03:51:27;5.20;;;2.28;;
16403;SDS011;8311;50.158;8.642;2022-10-24T03:54:20;8.00;;;1.90;;
16403;SDS011;8311;50.158;8.642;2022-10-24T03:57:13;5.38;;;2.22;;
16403;SDS011;8311;50.158;8.642;2022-10-24T04:00:07;4.72;;;2.03;;
16403;SDS011;8311;50.158;8.642;2022-10-24T04:03:00;6.05;;;1.90;;
16403;SDS011;8311;50.158;8.642;2022-10-24T04:05:55;3.63;;;1.98;;
16403;SDS011;8311;50.158;8.642;2022-10-24T04:08:48;8.00;;;2.25;;
16403;SDS011;8311;50.158;8.642;2022-10-24T04:11:41;5.60;;;2.50;;
16403;SDS011;8311;50.158;8.642;2022-10-24T04:14:34;6.40;;;2.63;;
16403;SDS011;8311;50.158;8.642;2022-10-24T04:17:28;4.30;;;2.33;;
16403;SDS011;8311;50.158;8.642;2022-10-24T04:20:20;4.20;;;2.40;;
16403;SDS011;8311;50.158;8.642;2022-10-24T04:23:15;4.47;;;2.60;;
16403;SDS011;8311;50.158;8.642;2022-10-24T04:26:08;4.50;;;2.55;;
16403;SDS011;8311;50.158;8.642;2022-10-24T04:29:03;3.95;;;2.17;;
16403;SDS011;8311;50.158;8.642;2022-10-24T04:31:56;4.90;;;2.58;;
16403;SDS011;8311;50.158;8.642;2022-10-24T04:34:49;4.90;;;2.20;;
16403;SDS011;8311;50.158;8.642;2022-10-24T04:37:42;5.32;;;2.28;;
16403;SDS011;8311;50.158;8.642;2022-10-24T04:40:37;6.40;;;2.65;;
16403;SDS011;8311;50.158;8.642;2022-10-24T04:43:30;2.97;;;2.03;;
16403;SDS011;8311;50.158;8.642;2022-10-24T04:46:24;7.18;;;2.28;;
16403;SDS011;8311;50.158;8.642;2022-10-24T04:49:17;5.57;;;2.22;;
16403;SDS011;8311;50.158;8.642;2022-10-24T04:52:11;6.72;;;2.30;;
16403;SDS011;8311;50.158;8.642;2022-10-24T04:55:05;3.92;;;2.30;;
16403;SDS011;8311;50.158;8.642;2022-10-24T04:57:59;4.85;;;2.20;;
16403;SDS011;8311;50.158;8.642;2022-10-24T05:00:52;7.47;;;2.30;;
16403;SDS011;8311;50.158;8.642;2022-10-24T05:03:45;4.95;;;2.60;;
16403;SDS011;8311;50.158;8.642;2022-10-24T05:06:38;5.45;;;2.47;;
16403;SDS011;8311;50.158;8.642;2022-10-24T05:09:35;4.43;;;2.05;;
16403;SDS011;8311;50.158;8.642;2022-10-24T05:12:29;4.05;;;1.75;;
16403;SDS011;8311;50.158;8.642;2022-10-24T05:15:22;3.35;;;2.13;;
16403;SDS011;8311;50.158;8.642;2022-10-24T05:18:16;2.75;;;1.98;;
16403;SDS011;8311;50.158;8.642;2022-10-24T05:21:08;4.85;;;2.10;;
16403;SDS011;8311;50.158;8.642;2022-10-24T05:24:03;3.63;;;1.90;;
16403;SDS011;8311;50.158;8.642;2022-10-24T05:26:56;4.88;;;2.53;;
16403;SDS011;8311;50.158;8.642;2022-10-24T05:29:50;4.65;;;2.83;;
16403;SDS011;8311;50.158;8.642;2022-10-24T05:32:44;4.40;;;2.63;;
16403;SDS011;8311;50.158;8.642;2022-10-24T05:35:39;5.45;;;2.70;;
16403;SDS011;8311;50.158;8.642;2022-10-24T05:38:32;3.47;;;2.40;;
16403;SDS011;8311;50.158;8.642;2022-10-24T05:41:26;4.22;;;2.63;;
16403;SDS011;8311;50.158;8.642;2022-10-24T05:44:19;5.82;;;2.47;;
16403;SDS011;8311;50.158;8.642;2022-10-24T05:47:13;4.53;;;2.40;;
16403;SDS011;8311;50.158;8.642;2022-10-24T05:50:07;4.72;;;2.08;;
16403;SDS011;8311;50.158;8.642;2022-10-24T05:53:02;4.25;;;2.65;;
16403;SDS011;8311;50.158;8.642;2022-10-24T05:55:55;6.47;;;3.00;;
16403;SDS011;8311;50.158;8.642;2022-10-24T05:58:49;5.43;;;2.10;;
16403;SDS011;8311;50.158;8.642;2022-10-24T06:01:42;9.15;;;3.17;;
16403;SDS011;8311;50.158;8.642;2022-10-24T06:04:36;9.20;;;3.47;;
16403;SDS011;8311;50.158;8.642;2022-10-24T06:07:30;10.82;;;3.17;;
16403;SDS011;8311;50.158;8.642;2022-10-24T06:10:23;6.20;;;3.25;;
16403;SDS011;8311;50.158;8.642;2022-10-24T06:13:16;9.68;;;3.20;;
16403;SDS011;8311;50.158;8.642;2022-10-24T06:16:10;9.15;;;3.38;;
16403;SDS011;8311;50.158;8.642;2022-10-24T06:19:03;7.82;;;2.80;;
16403;SDS011;8311;50.158;8.642;2022-10-24T06:21:57;12.00;;;2.92;;
16403;SDS011;8311;50.158;8.642;2022-10-24T06:24:51;6.50;;;2.67;;
16403;SDS011;8311;50.158;8.642;2022-10-24T06:27:44;9.88;;;3.03;;
16403;SDS011;8311;50.158;8.642;2022-10-24T06:30:37;5.93;;;2.50;;
16403;SDS011;8311;50.158;8.642;2022-10-24T06:33:32;8.10;;;2.85;;
16403;SDS011;8311;50.158;8.642;2022-10-24T06:36:25;9.75;;;3.58;;
16403;SDS011;8311;50.158;8.642;2022-10-24T06:39:21;9.38;;;3.20;;
16403;SDS011;8311;50.158;8.642;2022-10-24T06:42:16;9.32;;;3.10;;
16403;SDS011;8311;50.158;8.642;2022-10-24T06:45:10;6.63;;;2.47;;
16403;SDS011;8311;50.158;8.642;2022-10-24T06:48:04;8.18;;;2.65;;
16403;SDS011;8311;50.158;8.642;2022-10-24T06:50:58;4.78;;;2.92;;
16403;SDS011;8311;50.158;8.642;2022-10-24T06:53:52;12.45;;;3.17;;
16403;SDS011;8311;50.158;8.642;2022-10-24T06:56:44;8.55;;;2.80;;
16403;SDS011;8311;50.158;8.642;2022-10-24T06:59:39;8.82;;;2.90;;
16403;SDS011;8311;50.158;8.642;2022-10-24T07:02:31;8.95;;;2.67;;
16403;SDS011;8311;50.158;8.642;2022-10-24T07:05:24;6.93;;;2.70;;
16403;SDS011;8311;50.158;8.642;2022-10-24T07:08:17;6.03;;;2.80;;
16403;SDS011;8311;50.158;8.642;2022-10-24T07:11:12;10.48;;;2.75;;
16403;SDS011;8311;50.158;8.642;2022-10-24T07:14:05;9.07;;;2.55;;
16403;SDS011;8311;50.158;8.642;2022-10-24T07:17:00;6.93;;;2.83;;
16403;SDS011;8311;50.158;8.642;2022-10-24T07:19:55;5.35;;;2.28;;
16403;SDS011;8311;50.158;8.642;2022-10-24T07:22:48;9.15;;;2.83;;
16403;SDS011;8311;50.158;8.642;2022-10-24T07:25:41;6.82;;;2.90;;
16403;SDS011;8311;50.158;8.642;2022-10-24T07:28:35;8.73;;;3.00;;
16403;SDS011;8311;50.158;8.642;2022-10-24T07:31:30;8.23;;;2.80;;
16403;SDS011;8311;50.158;8.642;2022-10-24T07:34:27;10.02;;;3.08;;
16403;SDS011;8311;50.158;8.642;2022-10-24T07:37:20;9.50;;;2.78;;
16403;SDS011;8311;50.158;8.642;2022-10-24T07:40:14;9.10;;;2.78;;
16403;SDS011;8311;50.158;8.642;2022-10-24T07:43:06;8.45;;;3.28;;
16403;SDS011;8311;50.158;8.642;2022-10-24T07:46:03;7.45;;;3.10;;
16403;SDS011;8311;50.158;8.642;2022-10-24T07:48:57;7.22;;;3.30;;
16403;SDS011;8311;50.158;8.642;2022-10-24T07:51:52;7.35;;;2.75;;
16403;SDS011;8311;50.158;8.642;2022-10-24T07:54:45;7.85;;;2.97;;
16403;SDS011;8311;50.158;8.642;2022-10-24T07:57:38;7.43;;;2.88;;
16403;SDS011;8311;50.158;8.642;2022-10-24T08:00:31;7.32;;;3.28;;
16403;SDS011;8311;50.158;8.642;2022-10-24T08:03:24;8.85;;;3.67;;
16403;SDS011;8311;50.158;8.642;2022-10-24T08:06:18;8.45;;;3.10;;
16403;SDS011;8311;50.158;8.642;2022-10-24T08:09:14;8.98;;;3.05;;
16403;SDS011;8311;50.158;8.642;2022-10-24T08:12:09;7.75;;;2.92;;
16403;SDS011;8311;50.158;8.642;2022-10-24T08:15:03;6.90;;;3.20;;
16403;SDS011;8311;50.158;8.642;2022-10-24T08:17:56;6.53;;;3.13;;
16403;SDS011;8311;50.158;8.642;2022-10-24T08:21:00;6.07;;;3.03;;
16403;SDS011;8311;50.158;8.642;2022-10-24T08:23:56;12.23;;;3.58;;
16403;SDS011;8311;50.158;8.642;2022-10-24T08:26:52;6.50;;;3.20;;
16403;SDS011;8311;50.158;8.642;2022-10-24T08:29:46;8.05;;;3.28;;
16403;SDS011;8311;50.158;8.642;2022-10-24T08:32:40;8.38;;;2.70;;
16403;SDS011;8311;50.158;8.642;2022-10-24T08:35:34;5.80;;;3.00;;
16403;SDS011;8311;50.158;8.642;2022-10-24T08:38:26;6.93;;;2.67;;
16403;SDS011;8311;50.158;8.642;2022-10-24T08:41:23;6.20;;;2.67;;
16403;SDS011;8311;50.158;8.642;2022-10-24T08:44:24;8.02;;;2.92;;
16403;SDS011;8311;50.158;8.642;2022-10-24T08:47:21;6.50;;;2.88;;
16403;SDS011;8311;50.158;8.642;2022-10-24T08:50:29;6.55;;;2.80;;
16403;SDS011;8311;50.158;8.642;2022-10-24T08:53:26;6.05;;;2.90;;
16403;SDS011;8311;50.158;8.642;2022-10-24T08:56:21;5.43;;;2.80;;
16403;SDS011;8311;50.158;8.642;2022-10-24T08:59:17;6.38;;;2.67;;
16403;SDS011;8311;50.158;8.642;2022-10-24T09:02:14;8.30;;;3.03;;
16403;SDS011;8311;50.158;8.642;2022-10-24T09:05:16;7.63;;;2.55;;
16403;SDS011;8311;50.158;8.642;2022-10-24T09:08:16;6.18;;;2.63;;
16403;SDS011;8311;50.158;8.642;2022-10-24T09:11:18;8.23;;;2.95;;
16403;SDS011;8311;50.158;8.642;2022-10-24T09:14:16;7.50;;;2.60;;
16403;SDS011;8311;50.158;8.642;2022-10-24T09:17:11;7.10;;;3.08;;
16403;SDS011;8311;50.158;8.642;2022-10-24T09:20:19;6.07;;;2.88;;
16403;SDS011;8311;50.158;8.642;2022-10-24T09:23:16;11.85;;;3.83;;
16403;SDS011;8311;50.158;8.642;2022-10-24T09:26:12;9.52;;;2.78;;
16403;SDS011;8311;50.158;8.642;2022-10-24T09:29:08;7.57;;;3.03;;
16403;SDS011;8311;50.158;8.642;2022-10-24T09:32:01;6.75;;;3.05;;
16403;SDS011;8311;50.158;8.642;2022-10-24T09:34:58;10.25;;;3.30;;
16403;SDS011;8311;50.158;8.642;2022-10-24T09:37:53;8.98;;;3.70;;
16403;SDS011;8311;50.158;8.642;2022-10-24T09:40:48;7.45;;;3.13;;
16403;SDS011;8311;50.158;8.642;2022-10-24T09:43:45;7.30;;;3.15;;
16403;SDS011;8311;50.158;8.642;2022-10-24T09:46:41;7.00;;;3.25;;
16403;SDS011;8311;50.158;8.642;2022-10-24T09:49:37;7.78;;;3.13;;
16403;SDS011;8311;50.158;8.642;2022-10-24T09:52:34;7.00;;;3.25;;
16403;SDS011;8311;50.158;8.642;2022-10-24T09:55:28;8.25;;;2.75;;
16403;SDS011;8311;50.158;8.642;2022-10-24T09:58:25;8.48;;;3.67;;
16403;SDS011;8311;50.158;8.642;2022-10-24T10:01:23;9.90;;;3.85;;
16403;SDS011;8311;50.158;8.642;2022-10-24T10:04:17;10.75;;;3.10;;
16403;SDS011;8311;50.158;8.642;2022-10-24T10:07:11;7.20;;;3.25;;
16403;SDS011;8311;50.158;8.642;2022-10-24T10:10:23;8.63;;;3.17;;
16403;SDS011;8311;50.158;8.642;2022-10-24T10:13:21;8.80;;;3.15;;
16403;SDS011;8311;50.158;8.642;2022-10-24T10:16:20;10.00;;;3.55;;
16403;SDS011;8311;50.158;8.642;2022-10-24T10:19:16;10.25;;;4.35;;
16403;SDS011;8311;50.158;8.642;2022-10-24T10:22:20;12.52;;;4.60;;
16403;SDS011;8311;50.158;8.642;2022-10-24T10:25:26;10.00;;;3.90;;
16403;SDS011;8311;50.158;8.642;2022-10-24T10:28:21;10.82;;;3.88;;
16403;SDS011;8311;50.158;8.642;2022-10-24T10:31:15;15.50;;;4.30;;
16403;SDS011;8311;50.158;8.642;2022-10-24T10:34:11;16.30;;;4.10;;
16403;SDS011;8311;50.158;8.642;2022-10-24T10:37:17;12.85;;;4.28;;
16403;SDS011;8311;50.158;8.642;2022-10-24T10:40:22;12.93;;;3.90;;
16403;SDS011;8311;50.158;8.642;2022-10-24T10:43:24;18.23;;;3.95;;
16403;SDS011;8311;50.158;8.642;2022-10-24T10:46:25;9.93;;;3.88;;
16403;SDS011;8311;50.158;8.642;2022-10-24T10:49:26;12.25;;;3.17;;
16403;SDS011;8311;50.158;8.642;2022-10-24T10:52:23;12.30;;;3.53;;
16403;SDS011;8311;50.158;8.642;2022-10-24T10:55:26;13.20;;;3.70;;
16403;SDS011;8311;50.158;8.642;2022-10-24T10:58:29;12.75;;;3.72;;
16403;SDS011;8311;50.158;8.642;2022-10-24T11:01:34;11.60;;;4.72;;
16403;SDS011;8311;50.158;8.642;2022-10-24T11:04:35;12.93;;;4.75;;
16403;SDS011;8311;50.158;8.642;2022-10-24T11:07:33;13.93;;;4.22;;
16403;SDS011;8311;50.158;8.642;2022-10-24T11:10:33;12.25;;;4.97;;
16403;SDS011;8311;50.158;8.642;2022-10-24T11:13:30;14.35;;;5.05;;
16403;SDS011;8311;50.158;8.642;2022-10-24T11:16:28;18.23;;;4.97;;
16403;SDS011;8311;50.158;8.642;2022-10-24T11:19:24;12.98;;;4.60;;
16403;SDS011;8311;50.158;8.642;2022-10-24T11:22:24;12.75;;;4.85;;
16403;SDS011;8311;50.158;8.642;2022-10-24T11:25:22;9.73;;;4.10;;
16403;SDS011;8311;50.158;8.642;2022-10-24T11:28:22;8.85;;;3.45;;
16403;SDS011;8311;50.158;8.642;2022-10-24T11:31:19;9.88;;;3.65;;
16403;SDS011;8311;50.158;8.642;2022-10-24T11:34:17;10.68;;;3.60;;
16403;SDS011;8311;50.158;8.642;2022-10-24T11:37:13;10.60;;;3.80;;
16403;SDS011;8311;50.158;8.642;2022-10-24T11:40:12;8.93;;;3.38;;
16403;SDS011;8311;50.158;8.642;2022-10-24T11:43:08;7.70;;;3.20;;
16403;SDS011;8311;50.158;8.642;2022-10-24T11:46:12;8.43;;;3.28;;
16403;SDS011;8311;50.158;8.642;2022-10-24T11:49:12;8.60;;;3.25;;
16403;SDS011;8311;50.158;8.642;2022-10-24T11:52:13;10.35;;;2.85;;
16403;SDS011;8311;50.158;8.642;2022-10-24T11:55:13;5.88;;;2.67;;
16403;SDS011;8311;50.158;8.642;2022-10-24T11:58:11;9.38;;;3.05;;
16403;SDS011;8311;50.158;8.642;2022-10-24T12:01:11;9.63;;;2.90;;
16403;SDS011;8311;50.158;8.642;2022-10-24T12:04:36;8.15;;;3.00;;
16403;SDS011;8311;50.158;8.642;2022-10-24T12:07:46;9.32;;;3.70;;
16403;SDS011;8311;50.158;8.642;2022-10-24T12:14:20;6.15;;;3.03;;
16403;SDS011;8311;50.158;8.642;2022-10-24T12:17:36;6.68;;;2.20;;
16403;SDS011;8311;50.158;8.642;2022-10-24T12:20:39;6.60;;;2.20;;
16403;SDS011;8311;50.158;8.642;2022-10-24T12:23:33;7.65;;;2.50;;
16403;SDS011;8311;50.158;8.642;2022-10-24T12:26:27;5.50;;;2.05;;
16403;SDS011;8311;50.158;8.642;2022-10-24T12:29:22;6.97;;;2.40;;
16403;SDS011;8311;50.158;8.642;2022-10-24T12:32:22;5.97;;;2.08;;
16403;SDS011;8311;50.158;8.642;2022-10-24T12:35:45;6.45;;;2.00;;
16403;SDS011;8311;50.158;8.642;2022-10-24T12:41:59;7.85;;;2.42;;
16403;SDS011;8311;50.158;8.642;2022-10-24T12:44:55;6.00;;;2.10;;
16403;SDS011;8311;50.158;8.642;2022-10-24T12:48:25;3.60;;;1.73;;
16403;SDS011;8311;50.158;8.642;2022-10-24T12:51:26;6.82;;;1.90;;
16403;SDS011;8311;50.158;8.642;2022-10-24T12:54:37;7.00;;;2.28;;
16403;SDS011;8311;50.158;8.642;2022-10-24T12:57:32;9.77;;;2.05;;
16403;SDS011;8311;50.158;8.642;2022-10-24T13:00:30;5.40;;;1.92;;
16403;SDS011;8311;50.158;8.642;2022-10-24T13:03:30;5.80;;;1.85;;
16403;SDS011;8311;50.158;8.642;2022-10-24T13:06:42;3.83;;;1.67;;
16403;SDS011;8311;50.158;8.642;2022-10-24T13:09:46;6.40;;;2.00;;
16403;SDS011;8311;50.158;8.642;2022-10-24T13:12:58;4.45;;;1.75;;
16403;SDS011;8311;50.158;8.642;2022-10-24T13:16:17;4.90;;;2.03;;
16403;SDS011;8311;50.158;8.642;2022-10-24T13:19:15;6.55;;;1.77;;
16403;SDS011;8311;50.158;8.642;2022-10-24T13:22:24;6.07;;;1.60;;
16403;SDS011;8311;50.158;8.642;2022-10-24T13:25:26;4.40;;;1.73;;
16403;SDS011;8311;50.158;8.642;2022-10-24T13:28:34;3.38;;;1.27;;
16403;SDS011;8311;50.158;8.642;2022-10-24T13:35:10;3.53;;;1.58;;
16403;SDS011;8311;50.158;8.642;2022-10-24T13:38:11;5.40;;;1.60;;
16403;SDS011;8311;50.158;8.642;2022-10-24T13:41:07;3.40;;;1.40;;
16403;SDS011;8311;50.158;8.642;2022-10-24T13:44:06;4.35;;;1.55;;
16403;SDS011;8311;50.158;8.642;2022-10-24T13:47:16;3.67;;;1.38;;
16403;SDS011;8311;50.158;8.642;2022-10-24T13:50:14;2.92;;;1.20;;
16403;SDS011;8311;50.158;8.642;2022-10-24T13:53:13;3.80;;;1.30;;
16403;SDS011;8311;50.158;8.642;2022-10-24T13:56:20;5.15;;;1.80;;
16403;SDS011;8311;50.158;8.642;2022-10-24T13:59:26;3.47;;;1.30;;
16403;SDS011;8311;50.158;8.642;2022-10-24T14:02:25;5.28;;;1.60;;
16403;SDS011;8311;50.158;8.642;2022-10-24T14:05:26;5.65;;;1.63;;
16403;SDS011;8311;50.158;8.642;2022-10-24T14:08:26;5.30;;;1.67;;
16403;SDS011;8311;50.158;8.642;2022-10-24T14:11:22;6.13;;;1.48;;
16403;SDS011;8311;50.158;8.642;2022-10-24T14:14:25;5.25;;;1.33;;
16403;SDS011;8311;50.158;8.642;2022-10-24T14:17:22;5.07;;;1.73;;
16403;SDS011;8311;50.158;8.642;2022-10-24T14:20:20;4.32;;;1.63;;
16403;SDS011;8311;50.158;8.642;2022-10-24T14:23:21;4.43;;;1.33;;
16403;SDS011;8311;50.158;8.642;2022-10-24T14:26:16;7.00;;;1.45;;
16403;SDS011;8311;50.158;8.642;2022-10-24T14:29:18;5.20;;;1.50;;
16403;SDS011;8311;50.158;8.642;2022-10-24T14:32:13;4.13;;;1.40;;
16403;SDS011;8311;50.158;8.642;2022-10-24T14:35:11;4.32;;;1.60;;
16403;SDS011;8311;50.158;8.642;2022-10-24T14:38:06;4.28;;;1.52;;
16403;SDS011;8311;50.158;8.642;2022-10-24T14:41:05;5.65;;;1.80;;
16403;SDS011;8311;50.158;8.642;2022-10-24T14:44:00;5.65;;;1.58;;
16403;SDS011;8311;50.158;8.642;2022-10-24T14:47:01;3.90;;;1.48;;
16403;SDS011;8311;50.158;8.642;2022-10-24T14:49:55;3.33;;;1.42;;
16403;SDS011;8311;50.158;8.642;2022-10-24T14:52:51;6.32;;;1.60;;
16403;SDS011;8311;50.158;8.642;2022-10-24T14:55:47;3.88;;;1.25;;
16403;SDS011;8311;50.158;8.642;2022-10-24T14:58:42;4.38;;;1.52;;
16403;SDS011;8311;50.158;8.642;2022-10-24T15:01:35;3.92;;;1.38;;
16403;SDS011;8311;50.158;8.642;2022-10-24T15:04:30;4.68;;;1.40;;
16403;SDS011;8311;50.158;8.642;2022-10-24T15:07:29;2.63;;;1.10;;
16403;SDS011;8311;50.158;8.642;2022-10-24T15:10:31;3.60;;;1.60;;
16403;SDS011;8311;50.158;8.642;2022-10-24T15:13:43;4.70;;;1.55;;
16403;SDS011;8311;50.158;8.642;2022-10-24T15:16:57;5.78;;;1.60;;
16403;SDS011;8311;50.158;8.642;2022-10-24T15:19:53;5.43;;;1.40;;
16403;SDS011;8311;50.158;8.642;2022-10-24T15:22:49;3.03;;;1.35;;
16403;SDS011;8311;50.158;8.642;2022-10-24T15:25:55;2.88;;;1.13;;
16403;SDS011;8311;50.158;8.642;2022-10-24T15:29:00;2.75;;;1.02;;
16403;SDS011;8311;50.158;8.642;2022-10-24T15:31:57;4.07;;;1.42;;
16403;SDS011;8311;50.158;8.642;2022-10-24T15:34:52;3.40;;;1.42;;
16403;SDS011;8311;50.158;8.642;2022-10-24T15:37:51;3.47;;;1.30;;
16403;SDS011;8311;50.158;8.642;2022-10-24T15:40:45;3.75;;;1.27;;
16403;SDS011;8311;50.158;8.642;2022-10-24T15:43:40;1.90;;;1.10;;
16403;SDS011;8311;50.158;8.642;2022-10-24T15:46:33;3.38;;;1.50;;
16403;SDS011;8311;50.158;8.642;2022-10-24T15:49:26;6.57;;;1.35;;
16403;SDS011;8311;50.158;8.642;2022-10-24T15:52:20;2.88;;;1.13;;
16403;SDS011;8311;50.158;8.642;2022-10-24T15:55:15;4.13;;;1.40;;
16403;SDS011;8311;50.158;8.642;2022-10-24T15:58:11;4.25;;;1.50;;
16403;SDS011;8311;50.158;8.642;2022-10-24T16:01:05;3.38;;;1.30;;
16403;SDS011;8311;50.158;8.642;2022-10-24T16:04:00;2.17;;;0.95;;
16403;SDS011;8311;50.158;8.642;2022-10-24T16:06:54;4.68;;;1.10;;
16403;SDS011;8311;50.158;8.642;2022-10-24T16:09:48;5.43;;;1.60;;
16403;SDS011;8311;50.158;8.642;2022-10-24T16:12:41;4.30;;;1.40;;
16403;SDS011;8311;50.158;8.642;2022-10-24T16:15:36;3.47;;;1.33;;
16403;SDS011;8311;50.158;8.642;2022-10-24T16:18:30;2.70;;;1.40;;
16403;SDS011;8311;50.158;8.642;2022-10-24T16:21:23;4.68;;;1.50;;
16403;SDS011;8311;50.158;8.642;2022-10-24T16:24:16;6.03;;;1.38;;
16403;SDS011;8311;50.158;8.642;2022-10-24T16:27:10;4.03;;;1.63;;
16403;SDS011;8311;50.158;8.642;2022-10-24T16:30:03;4.32;;;1.20;;
16403;SDS011;8311;50.158;8.642;2022-10-24T16:32:58;3.88;;;1.05;;
16403;SDS011;8311;50.158;8.642;2022-10-24T16:35:51;3.67;;;1.20;;
16403;SDS011;8311;50.158;8.642;2022-10-24T16:38:44;4.60;;;1.50;;
16403;SDS011;8311;50.158;8.642;2022-10-24T16:41:38;2.78;;;1.38;;
16403;SDS011;8311;50.158;8.642;2022-10-24T16:44:36;4.63;;;1.67;;
16403;SDS011;8311;50.158;8.642;2022-10-24T16:47:29;7.68;;;1.70;;
16403;SDS011;8311;50.158;8.642;2022-10-24T16:50:24;3.78;;;1.38;;
16403;SDS011;8311;50.158;8.642;2022-10-24T16:53:19;4.60;;;1.60;;
16403;SDS011;8311;50.158;8.642;2022-10-24T16:56:14;5.13;;;1.60;;
16403;SDS011;8311;50.158;8.642;2022-10-24T16:59:08;5.00;;;1.67;;
16403;SDS011;8311;50.158;8.642;2022-10-24T17:02:06;4.53;;;1.60;;
16403;SDS011;8311;50.158;8.642;2022-10-24T17:05:00;4.80;;;1.73;;
16403;SDS011;8311;50.158;8.642;2022-10-24T17:07:54;2.45;;;1.30;;
16403;SDS011;8311;50.158;8.642;2022-10-24T17:10:47;5.38;;;2.05;;
16403;SDS011;8311;50.158;8.642;2022-10-24T17:13:40;4.38;;;1.58;;
16403;SDS011;8311;50.158;8.642;2022-10-24T17:16:33;3.47;;;1.63;;
16403;SDS011;8311;50.158;8.642;2022-10-24T17:19:26;3.33;;;1.40;;
16403;SDS011;8311;50.158;8.642;2022-10-24T17:22:19;2.20;;;1.10;;
16403;SDS011;8311;50.158;8.642;2022-10-24T17:25:16;3.80;;;1.73;;
16403;SDS011;8311;50.158;8.642;2022-10-24T17:28:11;4.18;;;1.60;;
16403;SDS011;8311;50.158;8.642;2022-10-24T17:31:05;4.28;;;1.90;;
16403;SDS011;8311;50.158;8.642;2022-10-24T17:33:59;4.35;;;1.92;;
16403;SDS011;8311;50.158;8.642;2022-10-24T17:36:55;5.93;;;1.85;;
16403;SDS011;8311;50.158;8.642;2022-10-24T17:39:55;3.65;;;1.80;;
16403;SDS011;8311;50.158;8.642;2022-10-24T17:42:53;7.55;;;1.90;;
16403;SDS011;8311;50.158;8.642;2022-10-24T17:45:48;4.93;;;2.00;;
16403;SDS011;8311;50.158;8.642;2022-10-24T17:48:42;4.28;;;1.95;;
16403;SDS011;8311;50.158;8.642;2022-10-24T17:51:35;5.32;;;1.98;;
16403;SDS011;8311;50.158;8.642;2022-10-24T17:54:31;5.65;;;1.95;;
16403;SDS011;8311;50.158;8.642;2022-10-24T17:57:26;5.15;;;1.95;;
16403;SDS011;8311;50.158;8.642;2022-10-24T18:00:20;5.40;;;1.90;;
16403;SDS011;8311;50.158;8.642;2022-10-24T18:03:14;4.57;;;1.80;;
16403;SDS011;8311;50.158;8.642;2022-10-24T18:06:07;4.63;;;1.85;;
16403;SDS011;8311;50.158;8.642;2022-10-24T18:09:02;4.47;;;1.80;;
16403;SDS011;8311;50.158;8.642;2022-10-24T18:11:55;4.10;;;1.80;;